PTSA

Kosrae International Airport

Airport
ICAO code
PTSA
IATA Code
KSA
Summary
ICAO Region
APAC
Location

Okat, Kosrae Island

Serving
Kosrae
Elevation
11 ft
Coordinates
5° 21' 13" N , 162° 57' 20" E
KCC
Metar
Observation
PTSA 292347Z 05003KT 10SM BKN020 BKN130 BKN300 31/24 A2985 RMK LAST
Station
Kosrae Island, Kosrae Airport
Date/Time
2022-09-29 23:47:00
Wind direction
50°
Wind speed
03 kts
Lowest cloud amount
broken clouds
Temperature
31°C
Dew point
24°C
Humidity
66%
Weather condition
n/a

Kosrae International Airport (IATA: KSA, ICAO: PTSA, FAA LID: TTK) is an airport serving Kosrae, the easternmost state of the Federated States of Micronesia. It is located on an artificial island within the fringing reef about 150 meters from the coast and is connected to the main island by a causeway.

Climatology

Tropical rainforest climate (Köppen climate classification Af)

Runways

Designator Length Width Surface Rops
5/23 1753 46 ASP Yes/Yes

Airport map

Aerial View

SKYbrary Partners:

Safety knowledge contributed by: